sensor_id;sensor_type;location;lat;lon;timestamp;P1;durP1;ratioP1;P2;durP2;ratioP2
68593;SDS011;55563;52.416;13.548;2023-12-20T00:01:38;2.13;;;1.42;;
68593;SDS011;55563;52.416;13.548;2023-12-20T00:03:40;2.45;;;1.60;;
68593;SDS011;55563;52.416;13.548;2023-12-20T00:05:41;2.92;;;1.83;;
68593;SDS011;55563;52.416;13.548;2023-12-20T00:07:42;2.10;;;1.52;;
68593;SDS011;55563;52.416;13.548;2023-12-20T00:09:44;2.85;;;1.70;;
68593;SDS011;55563;52.416;13.548;2023-12-20T00:11:47;1.73;;;1.40;;
68593;SDS011;55563;52.416;13.548;2023-12-20T00:13:49;2.15;;;1.40;;
68593;SDS011;55563;52.416;13.548;2023-12-20T00:15:50;2.75;;;1.70;;
68593;SDS011;55563;52.416;13.548;2023-12-20T00:17:51;2.33;;;1.42;;
68593;SDS011;55563;52.416;13.548;2023-12-20T00:19:52;2.05;;;1.48;;
68593;SDS011;55563;52.416;13.548;2023-12-20T00:21:53;2.70;;;1.73;;
68593;SDS011;55563;52.416;13.548;2023-12-20T00:23:56;2.15;;;1.38;;
68593;SDS011;55563;52.416;13.548;2023-12-20T00:25:58;2.47;;;1.75;;
68593;SDS011;55563;52.416;13.548;2023-12-20T00:27:59;1.98;;;1.50;;
68593;SDS011;55563;52.416;13.548;2023-12-20T00:30:00;2.17;;;1.50;;
68593;SDS011;55563;52.416;13.548;2023-12-20T00:32:02;2.13;;;1.50;;
68593;SDS011;55563;52.416;13.548;2023-12-20T00:34:04;2.72;;;1.73;;
68593;SDS011;55563;52.416;13.548;2023-12-20T00:36:05;2.42;;;1.42;;
68593;SDS011;55563;52.416;13.548;2023-12-20T00:40:11;1.58;;;1.20;;
68593;SDS011;55563;52.416;13.548;2023-12-20T00:42:12;2.55;;;1.42;;
68593;SDS011;55563;52.416;13.548;2023-12-20T00:44:12;2.05;;;1.30;;
68593;SDS011;55563;52.416;13.548;2023-12-20T00:46:13;2.45;;;1.42;;
68593;SDS011;55563;52.416;13.548;2023-12-20T00:48:14;2.25;;;1.63;;
68593;SDS011;55563;52.416;13.548;2023-12-20T00:50:16;1.83;;;1.30;;
68593;SDS011;55563;52.416;13.548;2023-12-20T00:52:18;3.00;;;1.48;;
68593;SDS011;55563;52.416;13.548;2023-12-20T00:54:20;2.10;;;1.30;;
68593;SDS011;55563;52.416;13.548;2023-12-20T00:56:21;1.48;;;1.20;;
68593;SDS011;55563;52.416;13.548;2023-12-20T00:58:22;1.88;;;1.30;;
68593;SDS011;55563;52.416;13.548;2023-12-20T01:00:24;2.08;;;1.40;;
68593;SDS011;55563;52.416;13.548;2023-12-20T01:02:27;1.98;;;1.45;;
68593;SDS011;55563;52.416;13.548;2023-12-20T01:04:29;2.42;;;1.60;;
68593;SDS011;55563;52.416;13.548;2023-12-20T01:06:31;2.00;;;1.30;;
68593;SDS011;55563;52.416;13.548;2023-12-20T01:08:33;2.03;;;1.27;;
68593;SDS011;55563;52.416;13.548;2023-12-20T01:10:35;1.80;;;1.30;;
68593;SDS011;55563;52.416;13.548;2023-12-20T01:12:37;2.33;;;1.50;;
68593;SDS011;55563;52.416;13.548;2023-12-20T01:14:39;1.88;;;1.40;;
68593;SDS011;55563;52.416;13.548;2023-12-20T01:16:40;1.98;;;1.23;;
68593;SDS011;55563;52.416;13.548;2023-12-20T01:18:40;5.50;;;2.00;;
68593;SDS011;55563;52.416;13.548;2023-12-20T01:20:41;1.67;;;1.33;;
68593;SDS011;55563;52.416;13.548;2023-12-20T01:22:43;2.10;;;1.23;;
68593;SDS011;55563;52.416;13.548;2023-12-20T01:24:46;1.50;;;1.17;;
68593;SDS011;55563;52.416;13.548;2023-12-20T01:26:47;1.67;;;1.20;;
68593;SDS011;55563;52.416;13.548;2023-12-20T01:28:49;2.13;;;1.30;;
68593;SDS011;55563;52.416;13.548;2023-12-20T01:30:50;2.03;;;1.50;;
68593;SDS011;55563;52.416;13.548;2023-12-20T01:32:52;1.70;;;1.20;;
68593;SDS011;55563;52.416;13.548;2023-12-20T01:34:56;1.52;;;1.13;;
68593;SDS011;55563;52.416;13.548;2023-12-20T01:36:57;1.55;;;1.20;;
68593;SDS011;55563;52.416;13.548;2023-12-20T01:38:59;2.10;;;1.33;;
68593;SDS011;55563;52.416;13.548;2023-12-20T01:41:02;1.42;;;1.17;;
68593;SDS011;55563;52.416;13.548;2023-12-20T01:43:06;1.73;;;1.13;;
68593;SDS011;55563;52.416;13.548;2023-12-20T01:45:09;1.65;;;1.25;;
68593;SDS011;55563;52.416;13.548;2023-12-20T01:47:11;1.85;;;1.42;;
68593;SDS011;55563;52.416;13.548;2023-12-20T01:49:13;1.80;;;1.15;;
68593;SDS011;55563;52.416;13.548;2023-12-20T01:51:17;1.65;;;1.33;;
68593;SDS011;55563;52.416;13.548;2023-12-20T01:53:19;1.48;;;1.15;;
68593;SDS011;55563;52.416;13.548;2023-12-20T01:55:22;1.75;;;1.25;;
68593;SDS011;55563;52.416;13.548;2023-12-20T01:57:24;2.13;;;1.38;;
68593;SDS011;55563;52.416;13.548;2023-12-20T01:59:25;1.52;;;1.13;;
68593;SDS011;55563;52.416;13.548;2023-12-20T02:01:27;1.42;;;1.02;;
68593;SDS011;55563;52.416;13.548;2023-12-20T02:03:29;1.95;;;1.20;;
68593;SDS011;55563;52.416;13.548;2023-12-20T02:05:31;1.58;;;1.17;;
68593;SDS011;55563;52.416;13.548;2023-12-20T02:07:34;1.98;;;1.23;;
68593;SDS011;55563;52.416;13.548;2023-12-20T02:09:38;1.58;;;1.10;;
68593;SDS011;55563;52.416;13.548;2023-12-20T02:11:40;1.60;;;1.48;;
68593;SDS011;55563;52.416;13.548;2023-12-20T02:13:42;1.80;;;1.17;;
68593;SDS011;55563;52.416;13.548;2023-12-20T02:15:44;1.48;;;1.00;;
68593;SDS011;55563;52.416;13.548;2023-12-20T02:17:45;1.85;;;1.45;;
68593;SDS011;55563;52.416;13.548;2023-12-20T02:19:49;1.73;;;1.05;;
68593;SDS011;55563;52.416;13.548;2023-12-20T02:22:04;2.10;;;1.40;;
68593;SDS011;55563;52.416;13.548;2023-12-20T02:24:08;1.60;;;1.05;;
68593;SDS011;55563;52.416;13.548;2023-12-20T02:26:10;1.50;;;1.13;;
68593;SDS011;55563;52.416;13.548;2023-12-20T02:28:15;1.40;;;1.00;;
68593;SDS011;55563;52.416;13.548;2023-12-20T02:30:16;1.33;;;1.05;;
68593;SDS011;55563;52.416;13.548;2023-12-20T02:32:18;1.60;;;1.00;;
68593;SDS011;55563;52.416;13.548;2023-12-20T02:34:21;1.15;;;0.98;;
68593;SDS011;55563;52.416;13.548;2023-12-20T02:36:23;1.65;;;1.00;;
68593;SDS011;55563;52.416;13.548;2023-12-20T02:38:25;1.27;;;1.00;;
68593;SDS011;55563;52.416;13.548;2023-12-20T02:40:28;1.60;;;1.08;;
68593;SDS011;55563;52.416;13.548;2023-12-20T02:42:29;1.38;;;1.10;;
68593;SDS011;55563;52.416;13.548;2023-12-20T02:44:32;1.55;;;1.05;;
68593;SDS011;55563;52.416;13.548;2023-12-20T02:46:34;1.38;;;1.10;;
68593;SDS011;55563;52.416;13.548;2023-12-20T02:48:36;2.38;;;1.40;;
68593;SDS011;55563;52.416;13.548;2023-12-20T02:50:37;1.60;;;1.17;;
68593;SDS011;55563;52.416;13.548;2023-12-20T02:52:38;2.35;;;1.48;;
68593;SDS011;55563;52.416;13.548;2023-12-20T02:54:39;1.70;;;1.25;;
68593;SDS011;55563;52.416;13.548;2023-12-20T02:56:41;1.65;;;1.20;;
68593;SDS011;55563;52.416;13.548;2023-12-20T02:58:42;2.10;;;1.50;;
68593;SDS011;55563;52.416;13.548;2023-12-20T03:00:43;2.80;;;1.40;;
68593;SDS011;55563;52.416;13.548;2023-12-20T03:02:44;2.15;;;1.33;;
68593;SDS011;55563;52.416;13.548;2023-12-20T03:04:45;2.78;;;2.20;;
68593;SDS011;55563;52.416;13.548;2023-12-20T03:06:45;1.80;;;1.60;;
68593;SDS011;55563;52.416;13.548;2023-12-20T03:08:46;1.73;;;1.20;;
68593;SDS011;55563;52.416;13.548;2023-12-20T03:10:47;2.05;;;1.25;;
68593;SDS011;55563;52.416;13.548;2023-12-20T03:12:47;1.83;;;1.30;;
68593;SDS011;55563;52.416;13.548;2023-12-20T03:14:48;1.42;;;1.05;;
68593;SDS011;55563;52.416;13.548;2023-12-20T03:16:49;1.98;;;1.40;;
68593;SDS011;55563;52.416;13.548;2023-12-20T03:18:50;1.75;;;1.30;;
68593;SDS011;55563;52.416;13.548;2023-12-20T03:20:51;1.45;;;1.20;;
68593;SDS011;55563;52.416;13.548;2023-12-20T03:22:52;1.45;;;1.20;;
68593;SDS011;55563;52.416;13.548;2023-12-20T03:24:52;2.15;;;1.23;;
68593;SDS011;55563;52.416;13.548;2023-12-20T03:26:53;1.75;;;1.10;;
68593;SDS011;55563;52.416;13.548;2023-12-20T03:28:54;1.38;;;1.10;;
68593;SDS011;55563;52.416;13.548;2023-12-20T03:30:54;2.15;;;1.35;;
68593;SDS011;55563;52.416;13.548;2023-12-20T03:32:55;1.52;;;1.02;;
68593;SDS011;55563;52.416;13.548;2023-12-20T03:34:55;2.33;;;1.13;;
68593;SDS011;55563;52.416;13.548;2023-12-20T03:36:56;1.63;;;1.10;;
68593;SDS011;55563;52.416;13.548;2023-12-20T03:38:56;1.80;;;1.13;;
68593;SDS011;55563;52.416;13.548;2023-12-20T03:40:57;1.40;;;1.20;;
68593;SDS011;55563;52.416;13.548;2023-12-20T03:42:57;1.58;;;1.02;;
68593;SDS011;55563;52.416;13.548;2023-12-20T03:44:58;1.83;;;1.13;;
68593;SDS011;55563;52.416;13.548;2023-12-20T03:46:59;2.70;;;1.33;;
68593;SDS011;55563;52.416;13.548;2023-12-20T03:49:00;2.05;;;1.13;;
68593;SDS011;55563;52.416;13.548;2023-12-20T03:51:01;1.75;;;0.98;;
68593;SDS011;55563;52.416;13.548;2023-12-20T03:53:02;2.08;;;1.23;;
68593;SDS011;55563;52.416;13.548;2023-12-20T03:55:04;1.35;;;1.05;;
68593;SDS011;55563;52.416;13.548;2023-12-20T03:57:05;1.45;;;1.05;;
68593;SDS011;55563;52.416;13.548;2023-12-20T03:59:05;1.48;;;1.02;;
68593;SDS011;55563;52.416;13.548;2023-12-20T04:01:09;3.00;;;1.20;;
68593;SDS011;55563;52.416;13.548;2023-12-20T04:03:12;1.65;;;0.95;;
68593;SDS011;55563;52.416;13.548;2023-12-20T04:05:13;4.28;;;0.98;;
68593;SDS011;55563;52.416;13.548;2023-12-20T04:07:14;1.73;;;0.98;;
68593;SDS011;55563;52.416;13.548;2023-12-20T04:09:15;1.38;;;1.02;;
68593;SDS011;55563;52.416;13.548;2023-12-20T04:11:15;1.67;;;1.00;;
68593;SDS011;55563;52.416;13.548;2023-12-20T04:13:16;3.15;;;1.00;;
68593;SDS011;55563;52.416;13.548;2023-12-20T04:15:16;1.77;;;0.80;;
68593;SDS011;55563;52.416;13.548;2023-12-20T04:17:17;1.70;;;0.93;;
68593;SDS011;55563;52.416;13.548;2023-12-20T04:19:18;2.25;;;1.20;;
68593;SDS011;55563;52.416;13.548;2023-12-20T04:21:18;1.40;;;0.90;;
68593;SDS011;55563;52.416;13.548;2023-12-20T04:23:19;1.60;;;1.10;;
68593;SDS011;55563;52.416;13.548;2023-12-20T04:25:19;2.95;;;1.00;;
68593;SDS011;55563;52.416;13.548;2023-12-20T04:27:20;1.73;;;0.95;;
68593;SDS011;55563;52.416;13.548;2023-12-20T04:29:20;1.15;;;0.82;;
68593;SDS011;55563;52.416;13.548;2023-12-20T04:31:21;1.92;;;1.00;;
68593;SDS011;55563;52.416;13.548;2023-12-20T04:33:23;1.10;;;0.80;;
68593;SDS011;55563;52.416;13.548;2023-12-20T04:35:25;2.92;;;0.90;;
68593;SDS011;55563;52.416;13.548;2023-12-20T04:37:26;2.80;;;1.15;;
68593;SDS011;55563;52.416;13.548;2023-12-20T04:39:26;4.07;;;1.25;;
68593;SDS011;55563;52.416;13.548;2023-12-20T04:41:27;1.30;;;0.80;;
68593;SDS011;55563;52.416;13.548;2023-12-20T04:43:28;0.70;;;0.60;;
68593;SDS011;55563;52.416;13.548;2023-12-20T04:45:30;2.65;;;0.80;;
68593;SDS011;55563;52.416;13.548;2023-12-20T04:47:30;1.80;;;0.90;;
68593;SDS011;55563;52.416;13.548;2023-12-20T04:49:31;0.73;;;0.70;;
68593;SDS011;55563;52.416;13.548;2023-12-20T04:51:33;1.65;;;0.90;;
68593;SDS011;55563;52.416;13.548;2023-12-20T04:53:34;1.25;;;0.95;;
68593;SDS011;55563;52.416;13.548;2023-12-20T04:55:35;2.95;;;1.10;;
68593;SDS011;55563;52.416;13.548;2023-12-20T04:57:36;1.35;;;1.00;;
68593;SDS011;55563;52.416;13.548;2023-12-20T04:59:37;1.60;;;0.90;;
68593;SDS011;55563;52.416;13.548;2023-12-20T05:01:38;2.35;;;1.30;;
68593;SDS011;55563;52.416;13.548;2023-12-20T05:03:38;5.88;;;2.20;;
68593;SDS011;55563;52.416;13.548;2023-12-20T05:05:39;1.95;;;1.10;;
68593;SDS011;55563;52.416;13.548;2023-12-20T05:07:39;2.15;;;1.23;;
68593;SDS011;55563;52.416;13.548;2023-12-20T05:09:40;3.33;;;1.60;;
68593;SDS011;55563;52.416;13.548;2023-12-20T05:11:41;2.85;;;1.15;;
68593;SDS011;55563;52.416;13.548;2023-12-20T05:13:42;2.58;;;1.20;;
68593;SDS011;55563;52.416;13.548;2023-12-20T05:15:42;2.38;;;1.10;;
68593;SDS011;55563;52.416;13.548;2023-12-20T05:17:43;1.65;;;0.95;;
68593;SDS011;55563;52.416;13.548;2023-12-20T05:19:43;1.27;;;0.73;;
68593;SDS011;55563;52.416;13.548;2023-12-20T05:21:44;1.40;;;0.95;;
68593;SDS011;55563;52.416;13.548;2023-12-20T05:23:45;2.03;;;0.95;;
68593;SDS011;55563;52.416;13.548;2023-12-20T05:25:45;1.27;;;0.73;;
68593;SDS011;55563;52.416;13.548;2023-12-20T05:27:46;0.93;;;0.82;;
68593;SDS011;55563;52.416;13.548;2023-12-20T05:29:47;1.17;;;0.82;;
68593;SDS011;55563;52.416;13.548;2023-12-20T05:31:47;3.28;;;1.10;;
68593;SDS011;55563;52.416;13.548;2023-12-20T05:33:48;3.78;;;1.02;;
68593;SDS011;55563;52.416;13.548;2023-12-20T05:35:48;0.95;;;0.80;;
68593;SDS011;55563;52.416;13.548;2023-12-20T05:37:49;2.60;;;0.93;;
68593;SDS011;55563;52.416;13.548;2023-12-20T05:39:50;3.15;;;1.00;;
68593;SDS011;55563;52.416;13.548;2023-12-20T05:41:50;1.42;;;0.52;;
68593;SDS011;55563;52.416;13.548;2023-12-20T05:43:51;1.42;;;0.82;;
68593;SDS011;55563;52.416;13.548;2023-12-20T05:45:52;1.63;;;0.70;;
68593;SDS011;55563;52.416;13.548;2023-12-20T05:47:52;2.22;;;0.73;;
68593;SDS011;55563;52.416;13.548;2023-12-20T05:49:53;2.63;;;0.90;;
68593;SDS011;55563;52.416;13.548;2023-12-20T05:51:54;2.25;;;1.00;;
68593;SDS011;55563;52.416;13.548;2023-12-20T05:53:55;0.70;;;0.70;;
68593;SDS011;55563;52.416;13.548;2023-12-20T05:55:55;1.88;;;0.70;;
68593;SDS011;55563;52.416;13.548;2023-12-20T05:57:56;2.83;;;0.68;;
68593;SDS011;55563;52.416;13.548;2023-12-20T05:59:56;1.63;;;0.77;;
68593;SDS011;55563;52.416;13.548;2023-12-20T06:01:57;1.85;;;0.60;;
68593;SDS011;55563;52.416;13.548;2023-12-20T06:03:57;1.38;;;0.70;;
68593;SDS011;55563;52.416;13.548;2023-12-20T06:05:58;2.10;;;0.80;;
68593;SDS011;55563;52.416;13.548;2023-12-20T06:08:00;2.60;;;0.90;;
68593;SDS011;55563;52.416;13.548;2023-12-20T06:10:03;0.82;;;0.50;;
68593;SDS011;55563;52.416;13.548;2023-12-20T06:12:04;1.05;;;0.73;;
68593;SDS011;55563;52.416;13.548;2023-12-20T06:14:05;1.05;;;0.70;;
68593;SDS011;55563;52.416;13.548;2023-12-20T06:16:05;3.28;;;0.80;;
68593;SDS011;55563;52.416;13.548;2023-12-20T06:18:07;2.13;;;0.73;;
68593;SDS011;55563;52.416;13.548;2023-12-20T06:20:08;1.45;;;0.55;;
68593;SDS011;55563;52.416;13.548;2023-12-20T06:22:09;2.20;;;0.60;;
68593;SDS011;55563;52.416;13.548;2023-12-20T06:24:09;1.20;;;0.60;;
68593;SDS011;55563;52.416;13.548;2023-12-20T06:26:10;2.42;;;0.98;;
68593;SDS011;55563;52.416;13.548;2023-12-20T06:28:10;1.13;;;0.50;;
68593;SDS011;55563;52.416;13.548;2023-12-20T06:30:15;1.25;;;0.60;;
68593;SDS011;55563;52.416;13.548;2023-12-20T06:32:16;0.80;;;0.80;;
68593;SDS011;55563;52.416;13.548;2023-12-20T06:34:16;1.02;;;0.60;;
68593;SDS011;55563;52.416;13.548;2023-12-20T06:36:17;2.00;;;0.95;;
68593;SDS011;55563;52.416;13.548;2023-12-20T06:38:18;2.60;;;0.80;;
68593;SDS011;55563;52.416;13.548;2023-12-20T06:40:19;1.20;;;0.77;;
68593;SDS011;55563;52.416;13.548;2023-12-20T06:42:20;2.88;;;0.93;;
68593;SDS011;55563;52.416;13.548;2023-12-20T06:44:21;3.13;;;0.68;;
68593;SDS011;55563;52.416;13.548;2023-12-20T06:46:21;1.23;;;0.70;;
68593;SDS011;55563;52.416;13.548;2023-12-20T06:48:22;1.15;;;0.60;;
68593;SDS011;55563;52.416;13.548;2023-12-20T06:50:22;2.22;;;0.90;;
68593;SDS011;55563;52.416;13.548;2023-12-20T06:52:23;0.90;;;0.55;;
68593;SDS011;55563;52.416;13.548;2023-12-20T06:54:23;2.03;;;0.90;;
68593;SDS011;55563;52.416;13.548;2023-12-20T06:56:24;2.28;;;0.65;;
68593;SDS011;55563;52.416;13.548;2023-12-20T06:58:24;1.15;;;0.85;;
68593;SDS011;55563;52.416;13.548;2023-12-20T07:00:25;2.65;;;1.00;;
68593;SDS011;55563;52.416;13.548;2023-12-20T07:02:26;1.08;;;0.68;;
68593;SDS011;55563;52.416;13.548;2023-12-20T07:04:31;1.25;;;0.90;;
68593;SDS011;55563;52.416;13.548;2023-12-20T07:06:32;1.10;;;0.60;;
68593;SDS011;55563;52.416;13.548;2023-12-20T07:08:33;2.15;;;0.77;;
68593;SDS011;55563;52.416;13.548;2023-12-20T07:10:34;0.80;;;0.70;;
68593;SDS011;55563;52.416;13.548;2023-12-20T07:12:35;1.65;;;0.73;;
68593;SDS011;55563;52.416;13.548;2023-12-20T07:14:35;0.65;;;0.65;;
68593;SDS011;55563;52.416;13.548;2023-12-20T07:16:36;2.45;;;0.70;;
68593;SDS011;55563;52.416;13.548;2023-12-20T07:18:37;2.88;;;0.80;;
68593;SDS011;55563;52.416;13.548;2023-12-20T07:20:37;2.47;;;0.85;;
68593;SDS011;55563;52.416;13.548;2023-12-20T07:22:38;1.77;;;0.80;;
68593;SDS011;55563;52.416;13.548;2023-12-20T07:24:39;0.63;;;0.60;;
68593;SDS011;55563;52.416;13.548;2023-12-20T07:26:40;2.28;;;0.80;;
68593;SDS011;55563;52.416;13.548;2023-12-20T07:28:40;1.55;;;0.80;;
68593;SDS011;55563;52.416;13.548;2023-12-20T07:30:41;2.25;;;0.90;;
68593;SDS011;55563;52.416;13.548;2023-12-20T07:32:42;0.95;;;0.73;;
68593;SDS011;55563;52.416;13.548;2023-12-20T07:34:42;1.20;;;0.70;;
68593;SDS011;55563;52.416;13.548;2023-12-20T07:36:43;1.15;;;0.70;;
68593;SDS011;55563;52.416;13.548;2023-12-20T07:38:43;1.58;;;0.60;;
68593;SDS011;55563;52.416;13.548;2023-12-20T07:40:44;0.70;;;0.50;;
68593;SDS011;55563;52.416;13.548;2023-12-20T07:42:45;0.95;;;0.60;;
68593;SDS011;55563;52.416;13.548;2023-12-20T07:44:45;1.10;;;0.70;;
68593;SDS011;55563;52.416;13.548;2023-12-20T07:46:46;1.25;;;0.73;;
68593;SDS011;55563;52.416;13.548;2023-12-20T07:48:48;1.15;;;0.70;;
68593;SDS011;55563;52.416;13.548;2023-12-20T07:50:49;1.10;;;0.68;;
68593;SDS011;55563;52.416;13.548;2023-12-20T07:52:50;1.80;;;0.70;;
68593;SDS011;55563;52.416;13.548;2023-12-20T07:54:50;0.68;;;0.60;;
68593;SDS011;55563;52.416;13.548;2023-12-20T07:56:51;2.10;;;0.70;;
68593;SDS011;55563;52.416;13.548;2023-12-20T07:58:51;0.85;;;0.70;;
68593;SDS011;55563;52.416;13.548;2023-12-20T08:00:52;2.08;;;0.65;;
68593;SDS011;55563;52.416;13.548;2023-12-20T08:02:53;0.55;;;0.47;;
68593;SDS011;55563;52.416;13.548;2023-12-20T08:04:53;3.78;;;0.65;;
68593;SDS011;55563;52.416;13.548;2023-12-20T08:06:54;0.60;;;0.60;;
68593;SDS011;55563;52.416;13.548;2023-12-20T08:08:54;1.33;;;0.60;;
68593;SDS011;55563;52.416;13.548;2023-12-20T08:10:55;2.70;;;0.60;;
68593;SDS011;55563;52.416;13.548;2023-12-20T08:12:57;2.47;;;0.75;;
68593;SDS011;55563;52.416;13.548;2023-12-20T08:14:58;1.73;;;0.70;;
68593;SDS011;55563;52.416;13.548;2023-12-20T08:16:59;3.35;;;0.90;;
68593;SDS011;55563;52.416;13.548;2023-12-20T08:19:00;3.63;;;0.80;;
68593;SDS011;55563;52.416;13.548;2023-12-20T08:21:00;4.28;;;0.52;;
68593;SDS011;55563;52.416;13.548;2023-12-20T08:23:01;1.88;;;0.75;;
68593;SDS011;55563;52.416;13.548;2023-12-20T08:25:03;2.58;;;0.70;;
68593;SDS011;55563;52.416;13.548;2023-12-20T08:27:04;2.78;;;0.82;;
68593;SDS011;55563;52.416;13.548;2023-12-20T08:29:04;0.68;;;0.40;;
68593;SDS011;55563;52.416;13.548;2023-12-20T08:31:05;0.68;;;0.60;;
68593;SDS011;55563;52.416;13.548;2023-12-20T08:33:06;2.55;;;1.00;;
68593;SDS011;55563;52.416;13.548;2023-12-20T08:35:11;1.70;;;0.70;;
68593;SDS011;55563;52.416;13.548;2023-12-20T08:41:24;1.42;;;0.52;;
68593;SDS011;55563;52.416;13.548;2023-12-20T08:43:25;1.52;;;0.60;;
68593;SDS011;55563;52.416;13.548;2023-12-20T08:45:26;0.95;;;0.68;;
68593;SDS011;55563;52.416;13.548;2023-12-20T08:47:26;3.30;;;1.05;;
68593;SDS011;55563;52.416;13.548;2023-12-20T08:49:27;0.63;;;0.60;;
68593;SDS011;55563;52.416;13.548;2023-12-20T08:51:28;1.75;;;0.80;;
68593;SDS011;55563;52.416;13.548;2023-12-20T08:53:29;1.90;;;0.77;;
68593;SDS011;55563;52.416;13.548;2023-12-20T08:55:30;1.58;;;0.85;;
68593;SDS011;55563;52.416;13.548;2023-12-20T08:57:31;3.20;;;0.57;;
68593;SDS011;55563;52.416;13.548;2023-12-20T08:59:32;1.88;;;0.60;;
68593;SDS011;55563;52.416;13.548;2023-12-20T09:01:33;2.30;;;0.90;;
68593;SDS011;55563;52.416;13.548;2023-12-20T09:03:33;0.70;;;0.70;;
68593;SDS011;55563;52.416;13.548;2023-12-20T09:05:34;2.80;;;0.60;;
68593;SDS011;55563;52.416;13.548;2023-12-20T09:07:35;2.42;;;0.98;;
68593;SDS011;55563;52.416;13.548;2023-12-20T09:09:35;0.52;;;0.52;;
68593;SDS011;55563;52.416;13.548;2023-12-20T09:11:36;0.88;;;0.63;;
68593;SDS011;55563;52.416;13.548;2023-12-20T09:13:37;1.02;;;0.70;;
68593;SDS011;55563;52.416;13.548;2023-12-20T09:15:40;0.95;;;0.68;;
68593;SDS011;55563;52.416;13.548;2023-12-20T09:17:40;4.93;;;0.80;;
68593;SDS011;55563;52.416;13.548;2023-12-20T09:19:42;2.15;;;0.75;;
68593;SDS011;55563;52.416;13.548;2023-12-20T09:21:44;2.92;;;1.08;;
68593;SDS011;55563;52.416;13.548;2023-12-20T09:23:45;1.65;;;0.70;;
68593;SDS011;55563;52.416;13.548;2023-12-20T09:25:45;1.92;;;0.70;;
68593;SDS011;55563;52.416;13.548;2023-12-20T09:27:46;2.15;;;0.82;;
68593;SDS011;55563;52.416;13.548;2023-12-20T09:29:46;2.35;;;1.05;;
68593;SDS011;55563;52.416;13.548;2023-12-20T09:31:48;2.40;;;1.05;;
68593;SDS011;55563;52.416;13.548;2023-12-20T09:33:50;1.65;;;1.10;;
68593;SDS011;55563;52.416;13.548;2023-12-20T09:35:50;2.92;;;0.93;;
68593;SDS011;55563;52.416;13.548;2023-12-20T09:37:51;2.58;;;0.90;;
68593;SDS011;55563;52.416;13.548;2023-12-20T09:39:52;1.25;;;0.75;;
68593;SDS011;55563;52.416;13.548;2023-12-20T09:42:00;2.13;;;0.80;;
68593;SDS011;55563;52.416;13.548;2023-12-20T09:44:02;5.70;;;0.90;;
68593;SDS011;55563;52.416;13.548;2023-12-20T09:46:05;1.48;;;0.70;;
68593;SDS011;55563;52.416;13.548;2023-12-20T09:48:08;1.98;;;0.77;;
68593;SDS011;55563;52.416;13.548;2023-12-20T09:50:11;1.92;;;0.63;;
68593;SDS011;55563;52.416;13.548;2023-12-20T09:52:13;2.38;;;0.75;;
68593;SDS011;55563;52.416;13.548;2023-12-20T09:54:17;1.30;;;0.90;;
68593;SDS011;55563;52.416;13.548;2023-12-20T09:56:18;2.45;;;0.73;;
68593;SDS011;55563;52.416;13.548;2023-12-20T09:58:19;1.42;;;0.80;;
68593;SDS011;55563;52.416;13.548;2023-12-20T10:00:19;2.53;;;0.77;;
68593;SDS011;55563;52.416;13.548;2023-12-20T10:02:20;1.23;;;0.68;;
68593;SDS011;55563;52.416;13.548;2023-12-20T10:04:26;1.00;;;0.60;;
68593;SDS011;55563;52.416;13.548;2023-12-20T10:08:28;0.70;;;0.60;;
68593;SDS011;55563;52.416;13.548;2023-12-20T10:10:30;1.15;;;1.00;;
68593;SDS011;55563;52.416;13.548;2023-12-20T10:12:30;2.28;;;0.80;;
68593;SDS011;55563;52.416;13.548;2023-12-20T10:14:32;4.15;;;1.15;;
68593;SDS011;55563;52.416;13.548;2023-12-20T10:16:33;1.00;;;0.57;;
68593;SDS011;55563;52.416;13.548;2023-12-20T10:20:35;1.67;;;0.90;;
68593;SDS011;55563;52.416;13.548;2023-12-20T10:22:35;3.03;;;1.13;;
68593;SDS011;55563;52.416;13.548;2023-12-20T10:24:37;2.92;;;1.27;;
68593;SDS011;55563;52.416;13.548;2023-12-20T10:26:37;2.03;;;1.00;;
68593;SDS011;55563;52.416;13.548;2023-12-20T10:28:38;4.72;;;1.10;;
68593;SDS011;55563;52.416;13.548;2023-12-20T10:30:39;3.22;;;1.35;;
68593;SDS011;55563;52.416;13.548;2023-12-20T10:32:40;1.65;;;1.13;;
68593;SDS011;55563;52.416;13.548;2023-12-20T10:34:41;2.75;;;1.20;;
68593;SDS011;55563;52.416;13.548;2023-12-20T10:36:41;2.03;;;1.08;;
68593;SDS011;55563;52.416;13.548;2023-12-20T10:38:42;2.13;;;0.90;;
68593;SDS011;55563;52.416;13.548;2023-12-20T10:40:43;2.08;;;0.60;;
68593;SDS011;55563;52.416;13.548;2023-12-20T10:42:45;1.40;;;0.95;;
68593;SDS011;55563;52.416;13.548;2023-12-20T10:44:48;1.80;;;1.05;;
68593;SDS011;55563;52.416;13.548;2023-12-20T10:46:49;1.38;;;0.75;;
68593;SDS011;55563;52.416;13.548;2023-12-20T10:48:53;1.88;;;0.88;;
68593;SDS011;55563;52.416;13.548;2023-12-20T10:50:55;4.55;;;1.10;;
68593;SDS011;55563;52.416;13.548;2023-12-20T10:52:56;1.90;;;0.93;;
68593;SDS011;55563;52.416;13.548;2023-12-20T10:54:57;3.42;;;1.25;;
68593;SDS011;55563;52.416;13.548;2023-12-20T10:56:58;2.15;;;0.95;;
68593;SDS011;55563;52.416;13.548;2023-12-20T10:59:00;1.83;;;1.00;;
68593;SDS011;55563;52.416;13.548;2023-12-20T11:01:04;3.38;;;1.05;;
68593;SDS011;55563;52.416;13.548;2023-12-20T11:03:05;3.38;;;1.08;;
68593;SDS011;55563;52.416;13.548;2023-12-20T11:05:14;6.60;;;1.30;;
68593;SDS011;55563;52.416;13.548;2023-12-20T11:07:40;0.95;;;0.77;;
68593;SDS011;55563;52.416;13.548;2023-12-20T11:09:49;1.70;;;1.10;;
68593;SDS011;55563;52.416;13.548;2023-12-20T11:14:15;1.63;;;1.00;;
68593;SDS011;55563;52.416;13.548;2023-12-20T11:16:20;2.47;;;0.90;;
68593;SDS011;55563;52.416;13.548;2023-12-20T11:18:25;2.95;;;0.88;;
68593;SDS011;55563;52.416;13.548;2023-12-20T11:20:35;3.08;;;1.20;;
68593;SDS011;55563;52.416;13.548;2023-12-20T11:22:38;4.03;;;1.33;;
68593;SDS011;55563;52.416;13.548;2023-12-20T11:25:07;6.93;;;1.00;;
68593;SDS011;55563;52.416;13.548;2023-12-20T11:27:10;1.98;;;1.05;;
68593;SDS011;55563;52.416;13.548;2023-12-20T11:29:42;2.95;;;1.27;;
68593;SDS011;55563;52.416;13.548;2023-12-20T11:31:40;2.15;;;1.10;;
68593;SDS011;55563;52.416;13.548;2023-12-20T11:33:41;2.88;;;1.50;;
68593;SDS011;55563;52.416;13.548;2023-12-20T11:35:42;2.08;;;1.00;;
68593;SDS011;55563;52.416;13.548;2023-12-20T11:37:45;2.40;;;1.25;;
68593;SDS011;55563;52.416;13.548;2023-12-20T11:39:55;3.78;;;1.10;;
68593;SDS011;55563;52.416;13.548;2023-12-20T11:41:56;1.83;;;0.70;;
68593;SDS011;55563;52.416;13.548;2023-12-20T11:43:57;1.77;;;0.98;;
68593;SDS011;55563;52.416;13.548;2023-12-20T11:46:05;2.45;;;1.00;;
68593;SDS011;55563;52.416;13.548;2023-12-20T11:48:07;1.40;;;0.73;;
68593;SDS011;55563;52.416;13.548;2023-12-20T11:50:08;2.08;;;1.50;;
68593;SDS011;55563;52.416;13.548;2023-12-20T11:52:09;2.00;;;0.90;;
68593;SDS011;55563;52.416;13.548;2023-12-20T11:54:13;2.30;;;1.25;;
68593;SDS011;55563;52.416;13.548;2023-12-20T11:58:14;2.00;;;1.13;;
68593;SDS011;55563;52.416;13.548;2023-12-20T12:00:16;3.10;;;1.67;;
68593;SDS011;55563;52.416;13.548;2023-12-20T12:02:18;2.78;;;1.00;;
68593;SDS011;55563;52.416;13.548;2023-12-20T12:04:18;1.80;;;1.00;;
68593;SDS011;55563;52.416;13.548;2023-12-20T12:06:19;1.30;;;1.10;;
68593;SDS011;55563;52.416;13.548;2023-12-20T12:08:20;1.30;;;0.90;;
68593;SDS011;55563;52.416;13.548;2023-12-20T12:10:22;2.28;;;1.13;;
68593;SDS011;55563;52.416;13.548;2023-12-20T12:12:23;2.13;;;0.63;;
68593;SDS011;55563;52.416;13.548;2023-12-20T12:14:25;2.08;;;1.20;;
68593;SDS011;55563;52.416;13.548;2023-12-20T12:16:26;1.45;;;0.95;;